createdAt,value
2022-10-08T00:01:13.687Z,6.43
2022-10-08T00:03:45.182Z,6.39
2022-10-08T00:06:13.790Z,6.37
2022-10-08T00:08:41.840Z,6.36
2022-10-08T00:11:11.367Z,6.37
2022-10-08T00:13:42.204Z,6.36
2022-10-08T00:16:21.006Z,6.36
2022-10-08T00:18:48.148Z,6.36
2022-10-08T00:21:35.428Z,6.35
2022-10-08T00:24:03.252Z,6.34
2022-10-08T00:26:31.003Z,6.34
2022-10-08T00:28:59.294Z,6.32
2022-10-08T00:31:28.159Z,6.31
2022-10-08T00:33:55.997Z,6.31
2022-10-08T00:36:23.946Z,6.30
2022-10-08T00:39:11.757Z,6.30
2022-10-08T00:41:38.501Z,6.29
2022-10-08T00:44:43.668Z,6.27
2022-10-08T00:47:18.574Z,6.26
2022-10-08T00:49:48.450Z,6.25
2022-10-08T00:52:15.175Z,6.24
2022-10-08T00:54:42.825Z,6.23
2022-10-08T00:57:09.575Z,6.20
2022-10-08T00:59:36.501Z,6.19
2022-10-08T01:02:04.053Z,6.17
2022-10-08T01:04:30.721Z,6.17
2022-10-08T01:07:18.339Z,6.17
2022-10-08T01:10:06.947Z,6.17
2022-10-08T01:12:40.882Z,6.16
2022-10-08T01:15:09.161Z,6.16
2022-10-08T01:17:41.679Z,6.15
2022-10-08T01:20:20.703Z,6.14
2022-10-08T01:23:13.527Z,6.14
2022-10-08T01:25:46.184Z,6.12
2022-10-08T01:28:22.110Z,6.11
2022-10-08T01:30:59.508Z,6.09
2022-10-08T01:33:33.022Z,6.09
2022-10-08T01:35:59.670Z,6.09
2022-10-08T01:38:27.610Z,6.06
2022-10-08T01:40:58.293Z,6.07
2022-10-08T01:43:27.668Z,6.07
2022-10-08T01:45:58.213Z,6.07
2022-10-08T01:48:28.640Z,6.04
2022-10-08T01:51:17.872Z,6.06
2022-10-08T01:55:16.267Z,6.08
2022-10-08T01:57:42.997Z,6.06
2022-10-08T02:00:11.579Z,6.05
2022-10-08T02:02:40.964Z,6.05
2022-10-08T02:05:07.961Z,6.05
2022-10-08T02:07:39.364Z,6.02
2022-10-08T02:10:07.398Z,6.02
2022-10-08T02:12:34.329Z,6.00
2022-10-08T02:15:00.933Z,5.99
2022-10-08T02:17:42.588Z,5.98
2022-10-08T02:20:17.108Z,5.94
2022-10-08T02:22:50.072Z,5.92
2022-10-08T02:25:22.766Z,5.92
2022-10-08T02:28:09.817Z,5.91
2022-10-08T02:31:14.166Z,5.91
2022-10-08T02:33:44.508Z,5.90
2022-10-08T02:36:11.535Z,5.90
2022-10-08T02:38:47.191Z,5.88
2022-10-08T02:41:13.875Z,5.89
2022-10-08T02:43:43.566Z,5.89
2022-10-08T02:46:21.522Z,5.89
2022-10-08T02:48:52.460Z,5.91
2022-10-08T02:51:19.153Z,5.91
2022-10-08T02:53:46.047Z,5.93
2022-10-08T02:56:20.516Z,5.97
2022-10-08T02:58:47.206Z,6.02
2022-10-08T03:01:34.036Z,6.08
2022-10-08T03:04:04.595Z,6.19
2022-10-08T03:06:31.571Z,6.28
2022-10-08T03:08:59.539Z,6.40
2022-10-08T03:11:26.554Z,6.50
2022-10-08T03:13:57.474Z,6.60
2022-10-08T03:16:26.807Z,6.71
2022-10-08T03:18:53.651Z,6.85
2022-10-08T03:21:20.283Z,6.96
2022-10-08T03:23:47.178Z,7.06
2022-10-08T03:26:17.272Z,7.15
2022-10-08T03:28:43.977Z,7.22
2022-10-08T03:31:10.675Z,7.31
2022-10-08T03:33:37.340Z,7.40
2022-10-08T03:36:04.283Z,7.48
2022-10-08T03:38:33.231Z,7.52
2022-10-08T03:40:59.975Z,7.55
2022-10-08T03:43:33.246Z,7.57
2022-10-08T03:46:00.015Z,7.57
2022-10-08T03:48:26.707Z,7.55
2022-10-08T03:51:01.280Z,7.53
2022-10-08T03:53:28.559Z,7.52
2022-10-08T03:55:55.205Z,7.52
2022-10-08T03:58:21.886Z,7.52
2022-10-08T04:00:58.412Z,7.51
2022-10-08T04:03:25.850Z,7.50
2022-10-08T04:05:52.589Z,7.51
2022-10-08T04:08:19.240Z,7.51
2022-10-08T04:10:45.878Z,7.48
2022-10-08T04:13:12.575Z,7.43
2022-10-08T04:15:39.284Z,7.42
2022-10-08T04:18:07.217Z,7.39
2022-10-08T04:20:34.164Z,7.36
2022-10-08T04:23:00.825Z,7.33
2022-10-08T04:25:27.480Z,7.29
2022-10-08T04:27:54.176Z,7.25
2022-10-08T04:30:20.867Z,7.22
2022-10-08T04:32:47.729Z,7.20
2022-10-08T04:35:14.816Z,7.15
2022-10-08T04:37:41.422Z,7.12
2022-10-08T04:40:08.866Z,7.08
2022-10-08T04:42:35.591Z,7.06
2022-10-08T04:45:02.230Z,7.04
2022-10-08T04:47:28.910Z,7.03
2022-10-08T04:49:55.764Z,7.03
2022-10-08T04:52:22.321Z,7.03
2022-10-08T04:54:48.999Z,7.06
2022-10-08T04:57:15.683Z,7.10
2022-10-08T05:00:05.814Z,7.15
2022-10-08T05:02:29.181Z,7.24
2022-10-08T05:04:55.785Z,7.34
2022-10-08T05:07:22.536Z,7.45
2022-10-08T05:09:49.235Z,7.57
2022-10-08T05:12:16.003Z,7.71
2022-10-08T05:14:42.559Z,7.83
2022-10-08T05:17:09.239Z,7.95
2022-10-08T05:19:35.885Z,8.08
2022-10-08T05:22:02.551Z,8.19
2022-10-08T05:24:29.227Z,8.31
2022-10-08T05:26:58.796Z,8.42
2022-10-08T05:29:26.111Z,8.53
2022-10-08T05:31:52.921Z,8.64
2022-10-08T05:34:19.709Z,8.74
2022-10-08T05:36:46.405Z,8.85
2022-10-08T05:39:13.194Z,8.95
2022-10-08T05:41:39.790Z,9.06
2022-10-08T05:44:06.754Z,9.15
2022-10-08T05:46:34.266Z,9.25
2022-10-08T05:49:01.924Z,9.35
2022-10-08T05:51:28.698Z,9.45
2022-10-08T05:53:55.490Z,9.56
2022-10-08T05:56:23.296Z,9.67
2022-10-08T05:58:50.110Z,9.77
2022-10-08T06:01:20.294Z,9.87
2022-10-08T06:03:53.862Z,9.96
2022-10-08T06:06:20.836Z,10.06
2022-10-08T06:08:47.640Z,10.16
2022-10-08T06:11:14.202Z,10.26
2022-10-08T06:13:40.980Z,10.37
2022-10-08T06:16:08.453Z,10.47
2022-10-08T06:18:36.704Z,10.57
2022-10-08T06:21:04.571Z,10.68
2022-10-08T06:23:31.292Z,10.78
2022-10-08T06:26:01.121Z,10.86
2022-10-08T06:28:27.828Z,10.94
2022-10-08T06:30:54.417Z,11.03
2022-10-08T06:33:21.104Z,11.11
2022-10-08T06:35:47.712Z,11.18
2022-10-08T06:38:14.380Z,11.25
2022-10-08T06:40:41.041Z,11.31
2022-10-08T06:43:09.687Z,11.40
2022-10-08T06:45:40.054Z,11.45
2022-10-08T06:48:06.878Z,11.54
2022-10-08T06:50:33.514Z,11.62
2022-10-08T06:53:00.260Z,11.68
2022-10-08T06:55:26.869Z,11.79
2022-10-08T06:57:53.562Z,11.89
2022-10-08T07:00:20.319Z,11.98
2022-10-08T07:02:47.177Z,12.06
2022-10-08T07:05:14.213Z,12.14
2022-10-08T07:07:40.926Z,12.20
2022-10-08T07:10:07.826Z,12.28
2022-10-08T07:12:34.515Z,12.38
2022-10-08T07:15:01.131Z,12.47
2022-10-08T07:17:28.792Z,12.55
2022-10-08T07:19:56.200Z,12.64
2022-10-08T07:22:23.524Z,12.72
2022-10-08T07:24:50.485Z,12.79
2022-10-08T07:27:18.172Z,12.86
2022-10-08T07:29:44.890Z,12.95
2022-10-08T07:32:11.630Z,13.02
2022-10-08T07:34:38.260Z,13.09
2022-10-08T07:37:04.839Z,13.17
2022-10-08T07:39:31.664Z,13.24
2022-10-08T07:41:58.336Z,13.31
2022-10-08T07:44:25.009Z,13.39
2022-10-08T07:46:53.381Z,13.44
2022-10-08T07:49:20.720Z,13.50
2022-10-08T07:51:48.113Z,13.52
2022-10-08T07:54:16.382Z,13.59
2022-10-08T07:56:43.030Z,13.62
2022-10-08T07:59:09.705Z,13.67
2022-10-08T08:01:36.489Z,13.72
2022-10-08T08:04:05.763Z,13.75
2022-10-08T08:06:33.032Z,13.78
2022-10-08T08:09:00.267Z,13.82
2022-10-08T08:11:26.974Z,13.86
2022-10-08T08:13:53.629Z,13.91
2022-10-08T08:16:27.885Z,13.96
2022-10-08T08:18:59.064Z,14.02
2022-10-08T08:21:27.582Z,14.09
2022-10-08T08:23:55.204Z,14.15
2022-10-08T08:26:27.150Z,14.22
2022-10-08T08:28:58.360Z,14.28
2022-10-08T08:31:30.125Z,14.33
2022-10-08T08:33:58.567Z,14.37
2022-10-08T08:36:30.167Z,14.40
2022-10-08T08:38:57.098Z,14.45
2022-10-08T08:41:39.000Z,14.49
2022-10-08T08:44:18.208Z,14.50
2022-10-08T08:46:57.041Z,14.54
2022-10-08T08:49:47.203Z,14.56
2022-10-08T08:52:16.171Z,14.57
2022-10-08T08:54:45.805Z,14.57
2022-10-08T08:57:50.812Z,14.59
2022-10-08T09:00:19.590Z,14.65
2022-10-08T09:03:24.848Z,14.69
2022-10-08T09:05:53.358Z,14.75
2022-10-08T09:08:29.561Z,14.78
2022-10-08T09:11:01.607Z,14.81
2022-10-08T09:13:49.088Z,14.85
2022-10-08T09:16:16.109Z,14.89
2022-10-08T09:18:46.998Z,14.89
2022-10-08T09:21:13.725Z,14.92
2022-10-08T09:23:40.631Z,14.93
2022-10-08T09:26:30.709Z,14.97
2022-10-08T09:29:00.837Z,14.99
2022-10-08T09:31:37.197Z,15.03
2022-10-08T09:34:10.833Z,15.06
2022-10-08T09:36:41.891Z,15.10
2022-10-08T09:39:35.859Z,15.12
2022-10-08T09:42:09.231Z,15.16
2022-10-08T09:44:46.298Z,15.24
2022-10-08T09:47:17.660Z,15.30
2022-10-08T09:49:44.967Z,15.35
2022-10-08T09:52:26.877Z,15.39
2022-10-08T09:54:55.348Z,15.41
2022-10-08T09:57:22.154Z,15.44
2022-10-08T09:59:54.972Z,15.48
2022-10-08T10:02:35.288Z,15.52
2022-10-08T10:05:06.529Z,15.55
2022-10-08T10:07:51.765Z,15.59
2022-10-08T10:10:28.812Z,15.63
2022-10-08T10:13:02.914Z,15.68
2022-10-08T10:15:35.435Z,15.73
2022-10-08T10:18:04.306Z,15.75
2022-10-08T10:20:51.127Z,15.76
2022-10-08T10:23:46.207Z,15.75
2022-10-08T10:26:30.241Z,15.74
2022-10-08T10:29:08.760Z,15.76
2022-10-08T10:31:38.499Z,15.78
2022-10-08T10:34:20.737Z,15.81
2022-10-08T10:37:01.595Z,15.85
2022-10-08T10:39:46.751Z,15.88
2022-10-08T10:42:24.449Z,15.91
2022-10-08T10:44:54.861Z,15.97
2022-10-08T10:47:31.820Z,16.02
2022-10-08T10:50:00.317Z,16.06
2022-10-08T10:52:46.058Z,16.10
2022-10-08T10:55:31.957Z,16.12
2022-10-08T10:58:36.445Z,16.15
2022-10-08T11:01:35.517Z,16.17
2022-10-08T11:04:27.105Z,16.18
2022-10-08T11:07:03.551Z,16.23
2022-10-08T11:09:47.220Z,16.27
2022-10-08T11:12:42.270Z,16.32
2022-10-08T11:15:27.219Z,16.38
2022-10-08T11:18:18.039Z,16.44
2022-10-08T11:21:03.478Z,16.48
2022-10-08T11:23:33.285Z,16.50
2022-10-08T11:26:23.147Z,16.53
2022-10-08T11:29:34.797Z,16.52
2022-10-08T11:32:01.460Z,16.50
2022-10-08T11:34:29.261Z,16.48
2022-10-08T11:37:14.534Z,16.47
2022-10-08T11:40:21.332Z,16.46
2022-10-08T11:42:57.180Z,16.48
2022-10-08T11:45:23.862Z,16.49
2022-10-08T11:47:54.480Z,16.49
2022-10-08T11:50:28.411Z,16.49
2022-10-08T11:53:00.541Z,16.48
2022-10-08T11:55:29.933Z,16.46
2022-10-08T11:58:14.053Z,16.45
2022-10-08T12:00:45.133Z,16.44
2022-10-08T12:03:25.058Z,16.42
2022-10-08T12:05:54.766Z,16.41
2022-10-08T12:08:53.237Z,16.40
2022-10-08T12:11:47.109Z,16.41
2022-10-08T12:14:17.063Z,16.42
2022-10-08T12:16:55.782Z,16.42
2022-10-08T12:19:34.670Z,16.44
2022-10-08T12:22:08.234Z,16.46
2022-10-08T12:24:37.925Z,16.46
2022-10-08T12:27:16.885Z,16.47
2022-10-08T12:29:52.850Z,16.49
2022-10-08T12:32:19.539Z,16.51
2022-10-08T12:34:46.206Z,16.51
2022-10-08T12:37:37.752Z,16.52
2022-10-08T12:40:13.022Z,16.50
2022-10-08T12:42:39.710Z,16.51
2022-10-08T12:45:07.918Z,16.52
2022-10-08T12:47:47.354Z,16.52
2022-10-08T12:50:51.520Z,16.52
2022-10-08T12:53:18.159Z,16.51
2022-10-08T12:55:55.591Z,16.51
2022-10-08T12:58:24.809Z,16.52
2022-10-08T13:00:56.830Z,16.52
2022-10-08T13:03:23.663Z,16.52
2022-10-08T13:05:50.463Z,16.52
2022-10-08T13:08:38.720Z,16.55
2022-10-08T13:11:10.152Z,16.57
2022-10-08T13:13:39.628Z,16.57
2022-10-08T13:16:09.475Z,16.56
2022-10-08T13:18:36.921Z,16.57
2022-10-08T13:21:05.162Z,16.56
2022-10-08T13:23:35.597Z,16.56
2022-10-08T13:26:02.620Z,16.55
2022-10-08T13:28:58.604Z,16.55
2022-10-08T13:31:22.423Z,16.54
2022-10-08T13:33:49.188Z,16.54
2022-10-08T13:36:21.049Z,16.53
2022-10-08T13:38:47.699Z,16.55
2022-10-08T13:41:23.374Z,16.54
2022-10-08T13:43:50.057Z,16.54
2022-10-08T13:46:16.836Z,16.54
2022-10-08T13:48:44.158Z,16.53
2022-10-08T13:51:10.815Z,16.53
2022-10-08T13:53:37.564Z,16.53
2022-10-08T13:56:04.296Z,16.52
2022-10-08T13:58:32.728Z,16.51
2022-10-08T14:00:59.509Z,16.48
2022-10-08T14:03:26.171Z,16.45
2022-10-08T14:05:52.830Z,16.43
2022-10-08T14:08:26.942Z,16.41
2022-10-08T14:12:15.082Z,16.39
2022-10-08T14:14:41.772Z,16.34
2022-10-08T14:17:08.427Z,16.27
2022-10-08T14:19:35.097Z,16.25
2022-10-08T14:22:01.798Z,16.19
2022-10-08T14:24:28.474Z,16.17
2022-10-08T14:26:55.314Z,16.12
2022-10-08T14:29:22.053Z,16.07
2022-10-08T14:31:48.783Z,16.02
2022-10-08T14:34:15.470Z,15.95
2022-10-08T14:36:42.557Z,15.89
2022-10-08T14:39:10.130Z,15.85
2022-10-08T14:41:37.489Z,15.82
2022-10-08T14:44:04.203Z,15.79
2022-10-08T14:46:30.910Z,15.76
2022-10-08T14:48:58.020Z,15.73
2022-10-08T14:51:24.712Z,15.68
2022-10-08T14:53:52.312Z,15.64
2022-10-08T14:56:18.961Z,15.59
2022-10-08T14:58:45.658Z,15.50
2022-10-08T15:01:12.413Z,15.45
2022-10-08T15:03:39.114Z,15.37
2022-10-08T15:06:06.202Z,15.28
2022-10-08T15:08:32.913Z,15.20
2022-10-08T15:11:01.797Z,15.14
2022-10-08T15:13:29.099Z,15.10
2022-10-08T15:15:55.769Z,15.05
2022-10-08T15:18:22.955Z,15.00
2022-10-08T15:20:56.633Z,14.94
2022-10-08T15:23:23.885Z,14.88
2022-10-08T15:26:01.292Z,14.81
2022-10-08T15:28:28.310Z,14.75
2022-10-08T15:31:22.525Z,14.69
2022-10-08T15:33:50.037Z,14.62
2022-10-08T15:36:27.079Z,14.57
2022-10-08T15:38:58.397Z,14.50
2022-10-08T15:41:25.306Z,14.45
2022-10-08T15:43:52.042Z,14.41
2022-10-08T15:46:19.880Z,14.37
2022-10-08T15:48:53.884Z,14.33
2022-10-08T15:51:21.108Z,14.28
2022-10-08T15:53:47.967Z,14.24
2022-10-08T15:56:14.634Z,14.21
2022-10-08T15:58:56.527Z,14.19
2022-10-08T16:01:23.547Z,14.15
2022-10-08T16:03:52.101Z,14.12
2022-10-08T16:06:20.793Z,14.09
2022-10-08T16:08:47.534Z,14.06
2022-10-08T16:11:15.394Z,14.02
2022-10-08T16:13:43.030Z,13.99
2022-10-08T16:16:14.790Z,13.95
2022-10-08T16:18:42.077Z,13.92
2022-10-08T16:21:09.812Z,13.87
2022-10-08T16:23:37.470Z,13.84
2022-10-08T16:26:05.767Z,13.81
2022-10-08T16:28:33.734Z,13.78
2022-10-08T16:31:00.533Z,13.75
2022-10-08T16:33:27.344Z,13.73
2022-10-08T16:35:54.413Z,13.72
2022-10-08T16:38:21.150Z,13.71
2022-10-08T16:40:47.854Z,13.69
2022-10-08T16:43:14.559Z,13.65
2022-10-08T16:45:41.315Z,13.66
2022-10-08T16:48:10.897Z,13.62
2022-10-08T16:50:39.118Z,13.60
2022-10-08T16:53:08.602Z,13.58
2022-10-08T16:55:36.420Z,13.54
2022-10-08T16:58:03.287Z,13.51
2022-10-08T17:00:30.125Z,13.48
2022-10-08T17:02:56.843Z,13.44
2022-10-08T17:05:23.755Z,13.39
2022-10-08T17:07:50.449Z,13.32
2022-10-08T17:10:17.228Z,13.25
2022-10-08T17:12:43.944Z,13.19
2022-10-08T17:15:10.838Z,13.15
2022-10-08T17:17:37.554Z,13.07
2022-10-08T17:20:04.531Z,13.00
2022-10-08T17:22:31.215Z,12.94
2022-10-08T17:24:57.828Z,12.89
2022-10-08T17:27:24.570Z,12.85
2022-10-08T17:29:51.177Z,12.82
2022-10-08T17:32:17.839Z,12.76
2022-10-08T17:34:44.451Z,12.71
2022-10-08T17:37:11.118Z,12.66
2022-10-08T17:39:37.694Z,12.59
2022-10-08T17:42:07.169Z,12.53
2022-10-08T17:44:34.561Z,12.50
2022-10-08T17:47:01.253Z,12.46
2022-10-08T17:49:28.491Z,12.44
2022-10-08T17:51:55.481Z,12.43
2022-10-08T17:54:22.672Z,12.44
2022-10-08T17:56:49.645Z,12.45
2022-10-08T17:59:17.465Z,12.46
2022-10-08T18:01:45.486Z,12.46
2022-10-08T18:04:13.635Z,12.47
2022-10-08T18:06:40.985Z,12.47
2022-10-08T18:09:10.703Z,12.44
2022-10-08T18:11:38.633Z,12.47
2022-10-08T18:14:05.624Z,12.47
2022-10-08T18:16:32.342Z,12.49
2022-10-08T18:18:59.132Z,12.50
2022-10-08T18:21:25.868Z,12.52
2022-10-08T18:23:52.500Z,12.54
2022-10-08T18:26:23.771Z,12.54
2022-10-08T18:28:54.596Z,12.54
2022-10-08T18:31:22.729Z,12.56
2022-10-08T18:33:51.088Z,12.56
2022-10-08T18:36:22.514Z,12.56
2022-10-08T18:38:53.934Z,12.56
2022-10-08T18:41:22.434Z,12.56
2022-10-08T18:43:49.447Z,12.55
2022-10-08T18:46:18.416Z,12.54
2022-10-08T18:48:45.264Z,12.51
2022-10-08T18:51:12.847Z,12.47
2022-10-08T18:53:41.046Z,12.47
2022-10-08T18:56:10.354Z,12.45
2022-10-08T18:58:38.125Z,12.41
2022-10-08T19:01:05.472Z,12.41
2022-10-08T19:03:32.216Z,12.38
2022-10-08T19:05:58.866Z,12.38
2022-10-08T19:08:25.682Z,12.35
2022-10-08T19:10:52.614Z,12.32
2022-10-08T19:13:20.018Z,12.30
2022-10-08T19:15:46.890Z,12.28
2022-10-08T19:18:13.627Z,12.27
2022-10-08T19:20:40.182Z,12.26
2022-10-08T19:23:06.840Z,12.25
2022-10-08T19:25:34.692Z,12.24
2022-10-08T19:28:04.444Z,12.22
2022-10-08T19:30:34.127Z,12.21
2022-10-08T19:33:01.187Z,12.19
2022-10-08T19:35:27.989Z,12.17
2022-10-08T19:37:54.586Z,12.12
2022-10-08T19:40:21.447Z,12.08
2022-10-08T19:42:51.192Z,12.06
2022-10-08T19:45:18.159Z,12.03
2022-10-08T19:47:44.782Z,11.99
2022-10-08T19:50:11.466Z,11.97
2022-10-08T19:52:38.065Z,11.94
2022-10-08T19:55:05.289Z,11.92
2022-10-08T19:57:31.922Z,11.86
2022-10-08T19:59:58.562Z,11.86
2022-10-08T20:02:25.642Z,11.84
2022-10-08T20:04:52.371Z,11.80
2022-10-08T20:07:18.983Z,11.76
2022-10-08T20:09:45.651Z,11.75
2022-10-08T20:12:12.364Z,11.73
2022-10-08T20:14:38.949Z,11.71
2022-10-08T20:17:05.642Z,11.69
2022-10-08T20:19:32.401Z,11.67
2022-10-08T20:21:58.960Z,11.64
2022-10-08T20:24:25.672Z,11.64
2022-10-08T20:26:52.375Z,11.62
2022-10-08T20:29:20.052Z,11.61
2022-10-08T20:31:54.036Z,11.60
2022-10-08T20:34:27.088Z,11.59
2022-10-08T20:36:53.985Z,11.54
2022-10-08T20:39:21.012Z,11.55
2022-10-08T20:41:47.815Z,11.54
2022-10-08T20:44:14.560Z,11.55
2022-10-08T20:46:41.439Z,11.56
2022-10-08T20:49:09.796Z,11.58
2022-10-08T20:51:38.399Z,11.61
2022-10-08T20:54:07.338Z,11.65
2022-10-08T20:56:39.177Z,11.66
2022-10-08T20:59:06.502Z,11.69
2022-10-08T21:01:36.695Z,11.72
2022-10-08T21:04:06.996Z,11.73
2022-10-08T21:06:41.594Z,11.75
2022-10-08T21:09:08.371Z,11.76
2022-10-08T21:11:35.270Z,11.77
2022-10-08T21:14:03.657Z,11.76
2022-10-08T21:16:38.436Z,11.80
2022-10-08T21:19:06.822Z,11.79
2022-10-08T21:21:33.999Z,11.78
2022-10-08T21:24:00.739Z,11.77
2022-10-08T21:26:28.165Z,11.77
2022-10-08T21:28:57.529Z,11.75
2022-10-08T21:31:24.388Z,11.71
2022-10-08T21:33:51.820Z,11.68
2022-10-08T21:36:20.766Z,11.60
2022-10-08T21:38:47.528Z,11.51
2022-10-08T21:41:14.788Z,11.39
2022-10-08T21:43:43.426Z,11.27
2022-10-08T21:46:11.428Z,11.18
2022-10-08T21:48:38.190Z,11.12
2022-10-08T21:51:09.097Z,11.08
2022-10-08T21:53:36.760Z,11.01
2022-10-08T21:56:05.234Z,10.96
2022-10-08T21:58:35.838Z,10.91
2022-10-08T22:01:02.632Z,10.85
2022-10-08T22:03:29.342Z,10.82
2022-10-08T22:06:01.575Z,10.77
2022-10-08T22:08:29.101Z,10.69
2022-10-08T22:10:55.854Z,10.61
2022-10-08T22:13:22.750Z,10.52
2022-10-08T22:15:54.063Z,10.43
2022-10-08T22:18:21.159Z,10.32
2022-10-08T22:20:47.854Z,10.22
2022-10-08T22:23:14.660Z,10.13
2022-10-08T22:25:41.304Z,10.04
2022-10-08T22:28:08.025Z,9.95
2022-10-08T22:30:35.932Z,9.89
2022-10-08T22:33:03.294Z,9.81
2022-10-08T22:35:33.494Z,9.79
2022-10-08T22:38:00.424Z,9.74
2022-10-08T22:40:27.404Z,9.69
2022-10-08T22:42:54.034Z,9.64
2022-10-08T22:45:20.772Z,9.62
2022-10-08T22:47:47.415Z,9.59
2022-10-08T22:50:14.354Z,9.58
2022-10-08T22:52:41.077Z,9.54
2022-10-08T22:55:08.086Z,9.58
2022-10-08T22:57:34.728Z,9.59
2022-10-08T23:00:01.454Z,9.60
2022-10-08T23:02:28.218Z,9.58
2022-10-08T23:04:54.821Z,9.57
2022-10-08T23:07:21.509Z,9.55
2022-10-08T23:09:48.164Z,9.52
2022-10-08T23:12:14.818Z,9.50
2022-10-08T23:14:41.494Z,9.48
2022-10-08T23:17:08.208Z,9.45
2022-10-08T23:19:34.799Z,9.42
2022-10-08T23:22:01.493Z,9.39
2022-10-08T23:24:29.301Z,9.36
2022-10-08T23:26:56.040Z,9.33
2022-10-08T23:29:22.671Z,9.31
2022-10-08T23:31:49.358Z,9.29
2022-10-08T23:34:15.971Z,9.26
2022-10-08T23:36:42.919Z,9.22
2022-10-08T23:39:12.278Z,9.18
2022-10-08T23:41:38.953Z,9.15
2022-10-08T23:44:05.722Z,9.13
2022-10-08T23:46:32.355Z,9.08
2022-10-08T23:48:59.509Z,9.01
2022-10-08T23:51:28.131Z,8.96
2022-10-08T23:53:54.874Z,8.89
2022-10-08T23:56:21.708Z,8.83
2022-10-08T23:58:48.658Z,8.77
